createdAt,value
2018-08-25T00:02:04.161Z,13.20
2018-08-25T00:04:32.847Z,13.20
2018-08-25T00:07:02.151Z,13.10
2018-08-25T00:09:30.749Z,13.10
2018-08-25T00:11:59.482Z,13.10
2018-08-25T00:14:28.317Z,13.00
2018-08-25T00:16:57.080Z,13.00
2018-08-25T00:19:25.812Z,13.10
2018-08-25T00:21:54.937Z,13.00
2018-08-25T00:24:23.619Z,13.00
2018-08-25T00:26:52.278Z,13.00
2018-08-25T00:29:21.370Z,13.00
2018-08-25T00:31:51.770Z,13.00
2018-08-25T00:34:21.320Z,13.00
2018-08-25T00:36:50.212Z,13.00
2018-08-25T00:39:18.844Z,13.00
2018-08-25T00:41:47.483Z,12.90
2018-08-25T00:44:16.482Z,12.90
2018-08-25T00:46:45.140Z,12.90
2018-08-25T00:49:14.492Z,12.90
2018-08-25T00:51:43.128Z,12.90
2018-08-25T00:54:11.804Z,12.90
2018-08-25T00:56:40.443Z,12.90
2018-08-25T00:59:09.058Z,12.90
2018-08-25T01:01:37.746Z,12.90
2018-08-25T01:04:06.518Z,12.90
2018-08-25T01:06:35.195Z,12.90
2018-08-25T01:09:04.870Z,12.90
2018-08-25T01:11:33.497Z,12.90
2018-08-25T01:14:02.159Z,12.90
2018-08-25T01:16:30.773Z,12.90
2018-08-25T01:18:59.462Z,12.90
2018-08-25T01:21:28.206Z,12.90
2018-08-25T01:23:57.296Z,12.90
2018-08-25T01:26:25.960Z,13.00
2018-08-25T01:28:54.777Z,13.00
2018-08-25T01:31:25.969Z,13.00
2018-08-25T01:33:55.874Z,13.10
2018-08-25T01:36:24.621Z,13.10
2018-08-25T01:38:53.272Z,13.10
2018-08-25T01:41:22.001Z,13.10
2018-08-25T01:43:50.980Z,13.10
2018-08-25T01:46:19.741Z,13.10
2018-08-25T01:48:48.364Z,13.10
2018-08-25T01:51:17.221Z,13.10
2018-08-25T01:53:46.039Z,13.10
2018-08-25T01:56:15.310Z,13.20
2018-08-25T01:58:44.172Z,13.20
2018-08-25T02:01:12.852Z,13.20
2018-08-25T02:03:41.592Z,13.20
2018-08-25T02:06:10.266Z,13.20
2018-08-25T02:08:39.621Z,13.20
2018-08-25T02:11:08.278Z,13.20
2018-08-25T02:13:36.972Z,13.20
2018-08-25T02:16:06.155Z,13.30
2018-08-25T02:18:34.883Z,13.30
2018-08-25T02:21:03.511Z,13.30
2018-08-25T02:23:32.178Z,13.30
2018-08-25T02:26:00.836Z,13.30
2018-08-25T02:28:30.195Z,13.30
2018-08-25T02:30:58.912Z,13.30
2018-08-25T02:33:27.682Z,13.30
2018-08-25T02:35:57.141Z,13.30
2018-08-25T02:38:25.855Z,13.30
2018-08-25T02:40:54.507Z,13.30
2018-08-25T02:43:23.214Z,13.20
2018-08-25T02:45:51.829Z,13.20
2018-08-25T02:48:20.515Z,13.20
2018-08-25T02:50:50.244Z,13.20
2018-08-25T02:53:19.027Z,13.20
2018-08-25T02:55:47.786Z,13.20
2018-08-25T02:58:16.460Z,13.10
2018-08-25T03:00:45.146Z,13.10
2018-08-25T03:03:13.775Z,13.10
2018-08-25T03:05:42.428Z,13.10
2018-08-25T03:08:11.096Z,13.10
2018-08-25T03:10:39.827Z,13.10
2018-08-25T03:13:08.522Z,13.10
2018-08-25T03:15:37.148Z,13.20
2018-08-25T03:18:05.780Z,13.20
2018-08-25T03:20:34.461Z,13.20
2018-08-25T03:23:03.160Z,13.20
2018-08-25T03:25:32.370Z,13.20
2018-08-25T03:28:01.118Z,13.20
2018-08-25T03:30:29.840Z,13.20
2018-08-25T03:32:58.448Z,13.20
2018-08-25T03:35:27.094Z,13.20
2018-08-25T03:37:55.781Z,13.20
2018-08-25T03:40:24.469Z,13.20
2018-08-25T03:42:53.179Z,13.20
2018-08-25T03:45:21.811Z,13.20
2018-08-25T03:47:50.429Z,13.20
2018-08-25T03:50:19.079Z,13.20
2018-08-25T03:52:47.763Z,13.30
2018-08-25T03:55:16.405Z,13.30
2018-08-25T03:57:45.939Z,13.30
2018-08-25T04:00:14.472Z,13.40
2018-08-25T04:02:43.071Z,13.40
2018-08-25T04:05:11.597Z,13.50
2018-08-25T04:07:40.788Z,13.50
2018-08-25T04:10:09.212Z,13.50
2018-08-25T04:12:38.043Z,13.50
2018-08-25T04:15:07.040Z,13.50
2018-08-25T04:17:35.565Z,13.50
2018-08-25T04:20:04.173Z,13.60
2018-08-25T04:22:32.651Z,13.60
2018-08-25T04:25:01.192Z,13.50
2018-08-25T04:27:29.859Z,13.50
2018-08-25T04:29:58.841Z,13.50
2018-08-25T04:32:27.318Z,13.50
2018-08-25T04:34:55.791Z,13.50
2018-08-25T04:37:24.320Z,13.50
2018-08-25T04:39:52.882Z,13.50
2018-08-25T04:42:21.352Z,13.50
2018-08-25T04:44:49.794Z,13.50
2018-08-25T04:47:18.312Z,13.50
2018-08-25T04:49:46.846Z,13.50
2018-08-25T04:52:16.058Z,13.40
2018-08-25T04:54:45.228Z,13.40
2018-08-25T04:57:13.690Z,13.40
2018-08-25T04:59:42.337Z,13.40
2018-08-25T05:02:10.809Z,13.40
2018-08-25T05:04:39.317Z,13.40
2018-08-25T05:07:07.831Z,13.30
2018-08-25T05:09:36.347Z,13.30
2018-08-25T05:12:04.946Z,13.30
2018-08-25T05:14:33.481Z,13.20
2018-08-25T05:17:03.181Z,13.20
2018-08-25T05:19:31.699Z,13.10
2018-08-25T05:22:00.459Z,13.10
2018-08-25T05:24:28.952Z,13.10
2018-08-25T05:26:57.686Z,13.10
2018-08-25T05:29:26.273Z,13.10
2018-08-25T05:31:54.853Z,13.20
2018-08-25T05:34:23.737Z,13.20
2018-08-25T05:36:52.321Z,13.20
2018-08-25T05:39:20.806Z,13.30
2018-08-25T05:41:49.332Z,13.30
2018-08-25T05:44:18.864Z,13.30
2018-08-25T05:46:47.249Z,13.40
2018-08-25T05:49:15.814Z,13.40
2018-08-25T05:51:44.341Z,13.40
2018-08-25T05:54:12.896Z,13.50
2018-08-25T05:56:41.386Z,13.50
2018-08-25T05:59:09.837Z,13.50
2018-08-25T06:01:38.385Z,13.50
2018-08-25T06:04:07.140Z,13.50
2018-08-25T06:06:35.753Z,13.60
2018-08-25T06:09:07.953Z,13.60
2018-08-25T06:11:36.542Z,13.60
2018-08-25T06:14:05.122Z,13.60
2018-08-25T06:16:33.606Z,13.60
2018-08-25T06:19:02.209Z,13.70
2018-08-25T06:21:30.737Z,13.70
2018-08-25T06:23:59.733Z,13.70
2018-08-25T06:26:28.247Z,13.70
2018-08-25T06:28:56.819Z,13.70
2018-08-25T06:31:25.340Z,13.70
2018-08-25T06:33:53.884Z,13.70
2018-08-25T06:36:22.951Z,13.70
2018-08-25T06:38:51.517Z,13.80
2018-08-25T06:41:20.086Z,13.90
2018-08-25T06:43:48.680Z,14.00
2018-08-25T06:46:17.523Z,14.20
2018-08-25T06:48:46.112Z,14.40
2018-08-25T06:51:14.593Z,14.50
2018-08-25T06:53:43.186Z,14.50
2018-08-25T06:56:11.660Z,14.60
2018-08-25T06:58:40.482Z,14.80
2018-08-25T07:01:09.030Z,15.10
2018-08-25T07:03:38.585Z,15.60
2018-08-25T07:06:07.291Z,16.40
2018-08-25T07:08:43.369Z,16.60
2018-08-25T07:11:12.697Z,16.60
2018-08-25T07:13:41.279Z,17.00
2018-08-25T07:16:10.707Z,17.40
2018-08-25T07:18:39.126Z,17.80
2018-08-25T07:21:07.966Z,18.10
2018-08-25T07:23:36.510Z,18.40
2018-08-25T07:26:05.113Z,18.30
2018-08-25T07:28:33.492Z,18.40
2018-08-25T07:31:02.577Z,18.70
2018-08-25T07:33:31.753Z,18.80
2018-08-25T07:36:00.766Z,18.60
2018-08-25T07:38:30.070Z,18.40
2018-08-25T07:40:58.980Z,18.10
2018-08-25T07:43:27.600Z,17.80
2018-08-25T07:45:56.214Z,17.50
2018-08-25T07:48:24.819Z,17.40
2018-08-25T07:50:53.859Z,17.40
2018-08-25T07:53:22.568Z,18.10
2018-08-25T07:55:51.314Z,19.00
2018-08-25T07:58:20.268Z,18.90
2018-08-25T08:00:49.047Z,18.50
2018-08-25T08:03:17.600Z,18.90
2018-08-25T08:05:46.727Z,19.80
2018-08-25T08:08:16.008Z,20.20
2018-08-25T08:10:45.416Z,20.00
2018-08-25T08:13:14.074Z,19.80
2018-08-25T08:15:42.697Z,19.50
2018-08-25T08:18:11.273Z,19.10
2018-08-25T08:20:39.932Z,18.60
2018-08-25T08:23:08.752Z,18.30
2018-08-25T08:25:37.281Z,18.10
2018-08-25T08:28:12.113Z,17.90
2018-08-25T08:30:41.165Z,17.60
2018-08-25T08:33:12.910Z,17.30
2018-08-25T08:35:41.576Z,17.10
2018-08-25T08:38:10.982Z,17.00
2018-08-25T08:40:39.733Z,16.80
2018-08-25T08:43:08.398Z,16.80
2018-08-25T08:45:37.004Z,16.80
2018-08-25T08:48:05.674Z,16.90
2018-08-25T08:50:37.939Z,17.30
2018-08-25T08:53:06.708Z,17.40
2018-08-25T08:55:35.337Z,17.20
2018-08-25T08:58:04.049Z,17.00
2018-08-25T09:00:32.601Z,17.00
2018-08-25T09:03:05.676Z,16.90
2018-08-25T09:05:34.160Z,17.20
2018-08-25T09:08:02.634Z,17.70
2018-08-25T09:10:31.216Z,18.10
2018-08-25T09:13:00.600Z,18.60
2018-08-25T09:15:29.176Z,19.10
2018-08-25T09:17:57.728Z,19.80
2018-08-25T09:20:26.292Z,20.70
2018-08-25T09:22:54.868Z,20.50
2018-08-25T09:25:23.425Z,20.80
2018-08-25T09:27:52.836Z,21.60
2018-08-25T09:30:21.365Z,21.50
2018-08-25T09:32:50.023Z,21.40
2018-08-25T09:35:19.697Z,21.10
2018-08-25T09:37:48.445Z,21.00
2018-08-25T09:40:17.181Z,21.90
2018-08-25T09:42:45.713Z,23.80
2018-08-25T09:45:14.676Z,25.30
2018-08-25T09:47:43.284Z,25.60
2018-08-25T09:50:11.800Z,24.40
2018-08-25T09:52:40.895Z,23.80
2018-08-25T09:55:09.437Z,23.10
2018-08-25T09:57:37.975Z,22.60
2018-08-25T10:00:06.531Z,22.40
2018-08-25T10:02:35.152Z,23.10
2018-08-25T10:05:03.747Z,23.20
2018-08-25T10:07:32.303Z,22.90
2018-08-25T10:10:01.129Z,21.80
2018-08-25T10:12:29.807Z,21.20
2018-08-25T10:14:58.536Z,20.90
2018-08-25T10:17:28.153Z,21.10
2018-08-25T10:19:56.840Z,21.90
2018-08-25T10:22:26.045Z,22.50
2018-08-25T10:24:54.618Z,21.80
2018-08-25T10:27:23.254Z,20.90
2018-08-25T10:29:52.108Z,20.30
2018-08-25T10:32:20.863Z,20.20
2018-08-25T10:34:49.565Z,19.90
2018-08-25T10:37:18.433Z,19.70
2018-08-25T10:39:47.971Z,19.60
2018-08-25T10:42:17.110Z,19.50
2018-08-25T10:44:45.746Z,19.30
2018-08-25T10:47:14.942Z,19.10
2018-08-25T10:49:43.559Z,18.80
2018-08-25T10:52:12.128Z,18.60
2018-08-25T10:54:40.709Z,18.50
2018-08-25T10:57:09.265Z,18.20
2018-08-25T10:59:38.814Z,18.20
2018-08-25T11:02:07.464Z,18.40
2018-08-25T11:04:37.620Z,18.80
2018-08-25T11:07:06.269Z,18.70
2018-08-25T11:09:34.896Z,18.50
2018-08-25T11:12:04.232Z,18.30
2018-08-25T11:14:32.852Z,18.20
2018-08-25T11:17:01.567Z,18.20
2018-08-25T11:19:30.282Z,18.30
2018-08-25T11:21:58.807Z,18.40
2018-08-25T11:24:27.397Z,19.10
2018-08-25T11:26:55.924Z,20.50
2018-08-25T11:29:24.598Z,21.30
2018-08-25T11:31:53.099Z,21.20
2018-08-25T11:34:21.758Z,20.60
2018-08-25T11:36:50.393Z,20.10
2018-08-25T11:39:18.887Z,19.60
2018-08-25T11:41:47.452Z,19.20
2018-08-25T11:44:16.103Z,19.00
2018-08-25T11:46:44.752Z,19.70
2018-08-25T11:49:13.777Z,21.50
2018-08-25T11:51:42.324Z,22.80
2018-08-25T11:54:11.033Z,24.10
2018-08-25T11:56:39.490Z,25.80
2018-08-25T11:59:08.174Z,26.90
2018-08-25T12:01:36.945Z,27.60
2018-08-25T12:04:05.655Z,28.40
2018-08-25T12:06:34.444Z,28.80
2018-08-25T12:09:03.350Z,27.00
2018-08-25T12:11:31.885Z,25.40
2018-08-25T12:14:00.506Z,24.20
2018-08-25T12:16:29.226Z,23.10
2018-08-25T12:18:57.712Z,22.30
2018-08-25T12:21:26.539Z,21.60
2018-08-25T12:23:55.171Z,21.50
2018-08-25T12:26:23.783Z,22.00
2018-08-25T12:28:52.594Z,23.00
2018-08-25T12:31:21.225Z,23.40
2018-08-25T12:33:50.361Z,24.10
2018-08-25T12:36:19.037Z,25.20
2018-08-25T12:38:47.688Z,26.50
2018-08-25T12:41:16.580Z,27.30
2018-08-25T12:43:45.257Z,26.50
2018-08-25T12:46:14.068Z,26.10
2018-08-25T12:48:42.751Z,26.00
2018-08-25T12:51:11.616Z,25.20
2018-08-25T12:53:41.252Z,24.40
2018-08-25T12:56:10.883Z,23.70
2018-08-25T12:58:41.059Z,23.10
2018-08-25T13:01:10.090Z,22.80
2018-08-25T13:03:39.100Z,22.70
2018-08-25T13:06:07.783Z,22.70
2018-08-25T13:08:36.546Z,22.30
2018-08-25T13:11:05.306Z,21.90
2018-08-25T13:13:34.026Z,21.60
2018-08-25T13:16:02.767Z,21.30
2018-08-25T13:18:31.639Z,21.20
2018-08-25T13:21:00.271Z,22.60
2018-08-25T13:23:28.943Z,24.10
2018-08-25T13:25:58.797Z,24.60
2018-08-25T13:28:27.538Z,23.60
2018-08-25T13:30:56.657Z,22.60
2018-08-25T13:33:25.552Z,21.60
2018-08-25T13:35:54.314Z,20.90
2018-08-25T13:38:22.894Z,20.30
2018-08-25T13:40:51.441Z,19.80
2018-08-25T13:43:19.965Z,19.50
2018-08-25T13:45:48.537Z,19.20
2018-08-25T13:48:17.058Z,19.40
2018-08-25T13:50:45.873Z,20.80
2018-08-25T13:53:16.707Z,22.00
2018-08-25T13:55:45.384Z,23.00
2018-08-25T13:58:14.439Z,23.90
2018-08-25T14:00:43.284Z,24.30
2018-08-25T14:03:12.811Z,23.80
2018-08-25T14:05:41.405Z,22.90
2018-08-25T14:08:10.041Z,22.10
2018-08-25T14:10:39.069Z,21.40
2018-08-25T14:13:07.878Z,20.80
2018-08-25T14:15:36.723Z,20.30
2018-08-25T14:18:06.136Z,19.90
2018-08-25T14:20:35.032Z,19.60
2018-08-25T14:23:04.337Z,19.40
2018-08-25T14:25:33.202Z,19.40
2018-08-25T14:28:02.052Z,19.60
2018-08-25T14:30:30.975Z,19.90
2018-08-25T14:32:59.710Z,20.00
2018-08-25T14:35:28.596Z,20.00
2018-08-25T14:37:57.564Z,19.80
2018-08-25T14:40:28.472Z,19.60
2018-08-25T14:42:57.799Z,19.40
2018-08-25T14:45:26.681Z,19.20
2018-08-25T14:47:56.286Z,19.10
2018-08-25T14:50:24.825Z,19.10
2018-08-25T14:52:53.414Z,19.00
2018-08-25T14:55:22.209Z,18.90
2018-08-25T14:57:50.805Z,18.90
2018-08-25T15:00:19.405Z,18.80
2018-08-25T15:02:50.440Z,18.80
2018-08-25T15:05:18.943Z,18.80
2018-08-25T15:07:48.366Z,18.70
2018-08-25T15:10:16.928Z,19.10
2018-08-25T15:12:45.428Z,19.10
2018-08-25T15:15:14.001Z,19.00
2018-08-25T15:17:43.027Z,19.20
2018-08-25T15:20:11.729Z,19.50
2018-08-25T15:22:41.355Z,19.60
2018-08-25T15:25:09.937Z,19.60
2018-08-25T15:27:39.084Z,19.60
2018-08-25T15:30:09.864Z,19.70
2018-08-25T15:32:39.617Z,19.80
2018-08-25T15:35:09.588Z,20.00
2018-08-25T15:37:38.191Z,19.90
2018-08-25T15:40:07.600Z,19.90
2018-08-25T15:42:36.369Z,19.80
2018-08-25T15:45:04.890Z,19.60
2018-08-25T15:47:33.501Z,19.50
2018-08-25T15:50:02.648Z,19.40
2018-08-25T15:52:31.984Z,19.40
2018-08-25T15:55:00.730Z,19.20
2018-08-25T15:57:30.148Z,19.10
2018-08-25T15:59:59.966Z,19.00
2018-08-25T16:02:29.011Z,19.10
2018-08-25T16:04:58.790Z,19.10
2018-08-25T16:07:27.853Z,19.20
2018-08-25T16:09:56.777Z,19.30
2018-08-25T16:12:26.341Z,19.20
2018-08-25T16:14:55.104Z,19.10
2018-08-25T16:17:25.017Z,19.00
2018-08-25T16:19:55.022Z,19.10
2018-08-25T16:22:24.344Z,19.30
2018-08-25T16:24:53.381Z,19.20
2018-08-25T16:27:21.910Z,19.10
2018-08-25T16:29:50.855Z,19.00
2018-08-25T16:32:19.936Z,19.00
2018-08-25T16:34:49.599Z,19.00
2018-08-25T16:37:18.824Z,18.80
2018-08-25T16:39:47.708Z,18.80
2018-08-25T16:42:16.541Z,18.90
2018-08-25T16:44:45.768Z,18.90
2018-08-25T16:47:15.181Z,18.80
2018-08-25T16:49:44.524Z,18.70
2018-08-25T16:52:15.105Z,18.70
2018-08-25T16:54:43.921Z,18.80
2018-08-25T16:57:13.398Z,18.70
2018-08-25T16:59:42.316Z,18.70
2018-08-25T17:02:11.140Z,18.50
2018-08-25T17:04:41.133Z,18.50
2018-08-25T17:07:10.609Z,18.50
2018-08-25T17:09:39.767Z,18.40
2018-08-25T17:12:08.753Z,18.40
2018-08-25T17:14:37.792Z,18.30
2018-08-25T17:17:06.626Z,18.30
2018-08-25T17:19:36.226Z,18.10
2018-08-25T17:22:04.922Z,18.00
2018-08-25T17:24:37.293Z,18.10
2018-08-25T17:27:06.719Z,17.90
2018-08-25T17:29:35.317Z,17.80
2018-08-25T17:32:04.507Z,17.80
2018-08-25T17:34:33.119Z,17.80
2018-08-25T17:37:01.712Z,17.70
2018-08-25T17:39:30.360Z,17.80
2018-08-25T17:41:59.245Z,17.80
2018-08-25T17:44:28.485Z,17.90
2018-08-25T17:46:57.135Z,18.00
2018-08-25T17:49:26.025Z,18.10
2018-08-25T17:51:56.085Z,18.10
2018-08-25T17:54:25.473Z,18.20
2018-08-25T17:56:54.453Z,18.30
2018-08-25T17:59:22.997Z,18.30
2018-08-25T18:01:56.774Z,18.40
2018-08-25T18:04:26.591Z,18.50
2018-08-25T18:06:56.252Z,18.50
2018-08-25T18:09:24.786Z,18.40
2018-08-25T18:11:53.314Z,18.40
2018-08-25T18:14:21.886Z,18.20
2018-08-25T18:16:51.122Z,17.90
2018-08-25T18:19:20.703Z,18.00
2018-08-25T18:21:49.679Z,18.10
2018-08-25T18:24:19.652Z,18.20
2018-08-25T18:26:50.015Z,18.40
2018-08-25T18:29:19.547Z,18.50
2018-08-25T18:34:17.334Z,18.50
2018-08-25T18:36:46.060Z,18.50
2018-08-25T18:39:15.094Z,18.50
2018-08-25T18:41:49.474Z,18.50
2018-08-25T18:44:18.727Z,18.90
2018-08-25T18:46:48.815Z,19.00
2018-08-25T18:49:17.923Z,18.60
2018-08-25T18:51:47.390Z,18.30
2018-08-25T18:54:17.547Z,18.10
2018-08-25T18:56:46.717Z,17.90
2018-08-25T18:59:17.533Z,17.70
2018-08-25T19:01:46.346Z,17.60
2018-08-25T19:04:16.721Z,17.50
2018-08-25T19:06:45.941Z,17.20
2018-08-25T19:09:15.621Z,17.00
2018-08-25T19:11:45.466Z,16.80
2018-08-25T19:14:15.328Z,16.60
2018-08-25T19:16:45.366Z,16.50
2018-08-25T19:19:15.868Z,16.30
2018-08-25T19:21:46.820Z,16.30
2018-08-25T19:24:17.681Z,16.20
2018-08-25T19:26:46.896Z,16.00
2018-08-25T19:29:16.955Z,16.00
2018-08-25T19:31:46.416Z,15.90
2018-08-25T19:34:15.738Z,15.80
2018-08-25T19:36:44.913Z,15.80
2018-08-25T19:39:14.227Z,15.70
2018-08-25T19:41:43.560Z,15.60
2018-08-25T19:44:12.965Z,15.50
2018-08-25T19:46:42.918Z,15.50
2018-08-25T19:49:12.621Z,15.40
2018-08-25T19:51:41.551Z,15.40
2018-08-25T19:54:11.317Z,15.30
2018-08-25T19:56:40.639Z,15.30
2018-08-25T19:59:09.316Z,15.20
2018-08-25T20:01:38.390Z,15.10
2018-08-25T20:04:08.096Z,15.00
2018-08-25T20:06:36.739Z,14.90
2018-08-25T20:09:07.769Z,14.80
2018-08-25T20:11:43.168Z,14.80
2018-08-25T20:14:13.378Z,14.70
2018-08-25T20:16:42.331Z,14.60
2018-08-25T20:19:11.377Z,14.60
2018-08-25T20:21:40.535Z,14.70
2018-08-25T20:24:10.235Z,14.70
2018-08-25T20:26:42.200Z,14.80
2018-08-25T20:29:11.557Z,14.80
2018-08-25T20:31:40.892Z,14.90
2018-08-25T20:34:11.121Z,14.90
2018-08-25T20:36:58.214Z,14.90
2018-08-25T20:39:53.275Z,14.90
2018-08-25T20:42:22.230Z,15.00
2018-08-25T20:44:51.101Z,14.90
2018-08-25T20:47:20.500Z,14.90
2018-08-25T20:49:49.664Z,14.80
2018-08-25T20:52:25.057Z,14.80
2018-08-25T20:54:54.715Z,14.80
2018-08-25T20:57:25.778Z,14.80
2018-08-25T20:59:55.549Z,14.80
2018-08-25T21:02:24.299Z,14.80
2018-08-25T21:04:53.061Z,14.70
2018-08-25T21:07:22.055Z,14.70
2018-08-25T21:09:50.829Z,14.60
2018-08-25T21:12:19.739Z,14.50
2018-08-25T21:14:48.729Z,14.50
2018-08-25T21:17:19.381Z,14.40
2018-08-25T21:19:48.403Z,14.30
2018-08-25T21:22:17.206Z,14.20
2018-08-25T21:24:46.016Z,14.20
2018-08-25T21:27:14.920Z,14.10
2018-08-25T21:29:43.645Z,14.00
2018-08-25T21:32:12.478Z,14.00
2018-08-25T21:34:42.206Z,13.90
2018-08-25T21:37:11.000Z,13.80
2018-08-25T21:39:39.922Z,13.70
2018-08-25T21:42:09.352Z,13.60
2018-08-25T21:44:38.423Z,13.50
2018-08-25T21:47:07.939Z,13.50
2018-08-25T21:49:37.011Z,13.50
2018-08-25T21:52:10.031Z,13.40
2018-08-25T21:54:38.786Z,13.40
2018-08-25T21:57:07.636Z,13.30
2018-08-25T21:59:36.489Z,13.30
2018-08-25T22:02:06.222Z,13.20
2018-08-25T22:04:34.989Z,13.20
2018-08-25T22:07:06.711Z,13.10
2018-08-25T22:09:35.762Z,13.10
2018-08-25T22:12:04.393Z,13.00
2018-08-25T22:14:32.932Z,13.00
2018-08-25T22:17:01.503Z,13.00
2018-08-25T22:19:30.072Z,12.90
2018-08-25T22:21:59.158Z,12.90
2018-08-25T22:24:27.741Z,12.80
2018-08-25T22:26:56.745Z,12.80
2018-08-25T22:29:25.554Z,12.80
2018-08-25T22:31:54.134Z,12.80
2018-08-25T22:34:28.003Z,12.70
2018-08-25T22:36:56.721Z,12.70
2018-08-25T22:39:25.978Z,12.70
2018-08-25T22:41:55.559Z,12.60
2018-08-25T22:44:24.523Z,12.60
2018-08-25T22:46:53.758Z,12.60
2018-08-25T22:49:22.410Z,12.50
2018-08-25T22:51:52.772Z,12.50
2018-08-25T22:54:21.631Z,12.50
2018-08-25T22:56:50.289Z,12.50
2018-08-25T22:59:20.164Z,12.50
2018-08-25T23:01:49.189Z,12.40
2018-08-25T23:04:19.473Z,12.40
2018-08-25T23:06:48.999Z,12.30
2018-08-25T23:09:17.647Z,12.40
2018-08-25T23:11:46.314Z,12.40
2018-08-25T23:14:14.893Z,12.30
2018-08-25T23:16:43.471Z,12.30
2018-08-25T23:19:12.316Z,12.30
2018-08-25T23:21:41.607Z,12.30
2018-08-25T23:24:10.977Z,12.30
2018-08-25T23:26:39.688Z,12.30
2018-08-25T23:29:09.509Z,12.30
2018-08-25T23:31:39.022Z,12.30
2018-08-25T23:34:14.835Z,12.30
2018-08-25T23:36:44.524Z,12.40
2018-08-25T23:39:13.239Z,12.40
2018-08-25T23:41:42.378Z,12.40
2018-08-25T23:44:11.138Z,12.40
2018-08-25T23:46:39.873Z,12.40
2018-08-25T23:49:08.653Z,12.40
2018-08-25T23:51:37.396Z,12.40
2018-08-25T23:54:07.674Z,12.30
2018-08-25T23:56:41.421Z,12.30
2018-08-25T23:59:10.246Z,12.20
